sensor_id;sensor_type;location;lat;lon;timestamp;temperature;humidity
82039;DHT22;71610;42.628;23.378;2023-12-20T00:01:01;21.60;33.20
82039;DHT22;71610;42.628;23.378;2023-12-20T00:03:27;21.60;33.20
82039;DHT22;71610;42.628;23.378;2023-12-20T00:05:52;21.70;33.30
82039;DHT22;71610;42.628;23.378;2023-12-20T00:08:18;21.60;33.20
82039;DHT22;71610;42.628;23.378;2023-12-20T00:10:44;21.60;33.20
82039;DHT22;71610;42.628;23.378;2023-12-20T00:13:10;21.60;33.20
82039;DHT22;71610;42.628;23.378;2023-12-20T00:15:36;21.60;33.20
82039;DHT22;71610;42.628;23.378;2023-12-20T00:18:02;21.60;33.20
82039;DHT22;71610;42.628;23.378;2023-12-20T00:20:28;21.60;33.20
82039;DHT22;71610;42.628;23.378;2023-12-20T00:22:56;21.60;33.20
82039;DHT22;71610;42.628;23.378;2023-12-20T00:25:26;21.60;33.20
82039;DHT22;71610;42.628;23.378;2023-12-20T00:27:52;21.60;33.10
82039;DHT22;71610;42.628;23.378;2023-12-20T00:30:18;21.60;33.10
82039;DHT22;71610;42.628;23.378;2023-12-20T00:32:44;21.60;33.10
82039;DHT22;71610;42.628;23.378;2023-12-20T00:35:15;21.60;33.10
82039;DHT22;71610;42.628;23.378;2023-12-20T00:37:41;21.60;33.10
82039;DHT22;71610;42.628;23.378;2023-12-20T00:40:07;21.60;33.10
82039;DHT22;71610;42.628;23.378;2023-12-20T00:42:33;21.60;33.00
82039;DHT22;71610;42.628;23.378;2023-12-20T00:44:59;21.60;33.10
82039;DHT22;71610;42.628;23.378;2023-12-20T00:47:25;21.60;33.00
82039;DHT22;71610;42.628;23.378;2023-12-20T00:49:52;21.60;33.00
82039;DHT22;71610;42.628;23.378;2023-12-20T00:52:18;21.60;33.00
82039;DHT22;71610;42.628;23.378;2023-12-20T00:54:44;21.60;32.90
82039;DHT22;71610;42.628;23.378;2023-12-20T00:57:10;21.60;32.90
82039;DHT22;71610;42.628;23.378;2023-12-20T00:59:36;21.60;32.90
82039;DHT22;71610;42.628;23.378;2023-12-20T01:02:02;21.60;33.00
82039;DHT22;71610;42.628;23.378;2023-12-20T01:04:28;21.60;32.90
82039;DHT22;71610;42.628;23.378;2023-12-20T01:06:53;21.60;32.90
82039;DHT22;71610;42.628;23.378;2023-12-20T01:09:19;21.60;32.90
82039;DHT22;71610;42.628;23.378;2023-12-20T01:11:45;21.60;32.90
82039;DHT22;71610;42.628;23.378;2023-12-20T01:14:12;21.60;32.90
82039;DHT22;71610;42.628;23.378;2023-12-20T01:16:38;21.60;32.90
82039;DHT22;71610;42.628;23.378;2023-12-20T01:19:03;21.60;32.80
82039;DHT22;71610;42.628;23.378;2023-12-20T01:21:29;21.60;32.90
82039;DHT22;71610;42.628;23.378;2023-12-20T01:23:55;21.60;32.80
82039;DHT22;71610;42.628;23.378;2023-12-20T01:26:21;21.50;32.80
82039;DHT22;71610;42.628;23.378;2023-12-20T01:28:47;21.50;32.80
82039;DHT22;71610;42.628;23.378;2023-12-20T01:31:13;21.60;32.90
82039;DHT22;71610;42.628;23.378;2023-12-20T01:33:38;21.60;32.90
82039;DHT22;71610;42.628;23.378;2023-12-20T01:36:05;21.60;33.90
82039;DHT22;71610;42.628;23.378;2023-12-20T01:38:30;21.60;32.70
82039;DHT22;71610;42.628;23.378;2023-12-20T01:40:56;21.60;32.80
82039;DHT22;71610;42.628;23.378;2023-12-20T01:43:22;21.50;32.70
82039;DHT22;71610;42.628;23.378;2023-12-20T01:45:48;21.60;32.70
82039;DHT22;71610;42.628;23.378;2023-12-20T01:48:15;21.60;32.70
82039;DHT22;71610;42.628;23.378;2023-12-20T01:50:41;21.60;32.70
82039;DHT22;71610;42.628;23.378;2023-12-20T01:53:10;21.50;32.70
82039;DHT22;71610;42.628;23.378;2023-12-20T01:55:39;21.50;32.60
82039;DHT22;71610;42.628;23.378;2023-12-20T01:58:06;21.50;32.60
82039;DHT22;71610;42.628;23.378;2023-12-20T02:00:33;21.50;32.60
82039;DHT22;71610;42.628;23.378;2023-12-20T02:03:02;21.50;32.60
82039;DHT22;71610;42.628;23.378;2023-12-20T02:05:32;21.50;32.60
82039;DHT22;71610;42.628;23.378;2023-12-20T02:07:58;21.50;32.60
82039;DHT22;71610;42.628;23.378;2023-12-20T02:10:24;21.50;32.60
82039;DHT22;71610;42.628;23.378;2023-12-20T02:12:50;21.50;32.60
82039;DHT22;71610;42.628;23.378;2023-12-20T02:15:16;21.50;32.60
82039;DHT22;71610;42.628;23.378;2023-12-20T02:17:42;21.50;32.60
82039;DHT22;71610;42.628;23.378;2023-12-20T02:20:08;21.50;32.60
82039;DHT22;71610;42.628;23.378;2023-12-20T02:22:34;21.50;32.60
82039;DHT22;71610;42.628;23.378;2023-12-20T02:25:00;21.50;32.50
82039;DHT22;71610;42.628;23.378;2023-12-20T02:27:27;21.50;32.50
82039;DHT22;71610;42.628;23.378;2023-12-20T02:29:54;21.50;32.50
82039;DHT22;71610;42.628;23.378;2023-12-20T02:32:21;21.50;32.50
82039;DHT22;71610;42.628;23.378;2023-12-20T02:34:47;21.50;32.40
82039;DHT22;71610;42.628;23.378;2023-12-20T02:37:13;21.50;32.40
82039;DHT22;71610;42.628;23.378;2023-12-20T02:39:39;21.60;32.50
82039;DHT22;71610;42.628;23.378;2023-12-20T02:42:05;21.60;32.40
82039;DHT22;71610;42.628;23.378;2023-12-20T02:44:30;21.50;32.40
82039;DHT22;71610;42.628;23.378;2023-12-20T02:46:56;21.60;32.40
82039;DHT22;71610;42.628;23.378;2023-12-20T02:49:22;21.60;32.40
82039;DHT22;71610;42.628;23.378;2023-12-20T02:51:48;21.60;32.30
82039;DHT22;71610;42.628;23.378;2023-12-20T02:54:14;21.60;32.30
82039;DHT22;71610;42.628;23.378;2023-12-20T02:56:39;21.60;32.20
82039;DHT22;71610;42.628;23.378;2023-12-20T02:59:05;21.60;32.30
82039;DHT22;71610;42.628;23.378;2023-12-20T03:01:32;21.60;32.20
82039;DHT22;71610;42.628;23.378;2023-12-20T03:03:57;21.60;32.10
82039;DHT22;71610;42.628;23.378;2023-12-20T03:06:23;21.60;32.10
82039;DHT22;71610;42.628;23.378;2023-12-20T03:08:50;21.60;32.10
82039;DHT22;71610;42.628;23.378;2023-12-20T03:11:15;21.60;32.10
82039;DHT22;71610;42.628;23.378;2023-12-20T03:13:41;21.60;32.00
82039;DHT22;71610;42.628;23.378;2023-12-20T03:16:10;21.70;32.00
82039;DHT22;71610;42.628;23.378;2023-12-20T03:18:36;21.70;32.00
82039;DHT22;71610;42.628;23.378;2023-12-20T03:21:03;21.60;31.90
82039;DHT22;71610;42.628;23.378;2023-12-20T03:23:29;21.60;32.00
82039;DHT22;71610;42.628;23.378;2023-12-20T03:25:56;21.60;31.90
82039;DHT22;71610;42.628;23.378;2023-12-20T03:28:22;21.60;31.80
82039;DHT22;71610;42.628;23.378;2023-12-20T03:30:48;21.70;31.80
82039;DHT22;71610;42.628;23.378;2023-12-20T03:33:15;21.70;31.90
82039;DHT22;71610;42.628;23.378;2023-12-20T03:35:40;21.70;31.70
82039;DHT22;71610;42.628;23.378;2023-12-20T03:38:07;21.70;31.70
82039;DHT22;71610;42.628;23.378;2023-12-20T03:40:33;21.70;31.70
82039;DHT22;71610;42.628;23.378;2023-12-20T03:42:59;21.70;31.70
82039;DHT22;71610;42.628;23.378;2023-12-20T03:45:24;21.70;31.70
82039;DHT22;71610;42.628;23.378;2023-12-20T03:47:50;21.70;31.70
82039;DHT22;71610;42.628;23.378;2023-12-20T03:50:22;21.70;31.60
82039;DHT22;71610;42.628;23.378;2023-12-20T03:52:47;21.70;31.60
82039;DHT22;71610;42.628;23.378;2023-12-20T03:55:13;21.70;31.50
82039;DHT22;71610;42.628;23.378;2023-12-20T03:57:39;21.70;31.50
82039;DHT22;71610;42.628;23.378;2023-12-20T04:00:06;21.70;32.60
82039;DHT22;71610;42.628;23.378;2023-12-20T04:02:36;21.70;31.40
82039;DHT22;71610;42.628;23.378;2023-12-20T04:05:02;21.70;31.40
82039;DHT22;71610;42.628;23.378;2023-12-20T04:07:28;21.70;31.40
82039;DHT22;71610;42.628;23.378;2023-12-20T04:09:53;21.70;31.30
82039;DHT22;71610;42.628;23.378;2023-12-20T04:12:19;21.70;31.30
82039;DHT22;71610;42.628;23.378;2023-12-20T04:14:45;21.70;31.30
82039;DHT22;71610;42.628;23.378;2023-12-20T04:17:10;21.80;31.30
82039;DHT22;71610;42.628;23.378;2023-12-20T04:19:36;21.70;31.20
82039;DHT22;71610;42.628;23.378;2023-12-20T04:22:02;21.70;31.20
82039;DHT22;71610;42.628;23.378;2023-12-20T04:24:27;21.70;31.20
82039;DHT22;71610;42.628;23.378;2023-12-20T04:26:53;21.70;31.20
82039;DHT22;71610;42.628;23.378;2023-12-20T04:29:19;21.70;31.10
82039;DHT22;71610;42.628;23.378;2023-12-20T04:31:45;21.70;31.10
82039;DHT22;71610;42.628;23.378;2023-12-20T04:34:10;21.80;31.10
82039;DHT22;71610;42.628;23.378;2023-12-20T04:36:36;21.80;31.10
82039;DHT22;71610;42.628;23.378;2023-12-20T04:39:02;21.70;31.00
82039;DHT22;71610;42.628;23.378;2023-12-20T04:41:28;21.80;31.00
82039;DHT22;71610;42.628;23.378;2023-12-20T04:43:54;21.80;31.00
82039;DHT22;71610;42.628;23.378;2023-12-20T04:46:19;21.80;31.00
82039;DHT22;71610;42.628;23.378;2023-12-20T04:48:45;21.80;31.00
82039;DHT22;71610;42.628;23.378;2023-12-20T04:51:11;21.80;31.00
82039;DHT22;71610;42.628;23.378;2023-12-20T04:53:36;21.80;31.00
82039;DHT22;71610;42.628;23.378;2023-12-20T04:56:02;21.80;31.00
82039;DHT22;71610;42.628;23.378;2023-12-20T04:58:28;21.80;32.10
82039;DHT22;71610;42.628;23.378;2023-12-20T05:00:54;21.80;30.90
82039;DHT22;71610;42.628;23.378;2023-12-20T05:03:20;21.70;29.00
82039;DHT22;71610;42.628;23.378;2023-12-20T05:05:46;21.70;26.80
82039;DHT22;71610;42.628;23.378;2023-12-20T05:08:11;21.60;25.10
82039;DHT22;71610;42.628;23.378;2023-12-20T05:10:37;21.60;24.00
82039;DHT22;71610;42.628;23.378;2023-12-20T05:13:03;21.50;23.30
82039;DHT22;71610;42.628;23.378;2023-12-20T05:15:29;21.40;22.80
82039;DHT22;71610;42.628;23.378;2023-12-20T05:17:54;21.30;22.40
82039;DHT22;71610;42.628;23.378;2023-12-20T05:20:20;21.20;22.10
82039;DHT22;71610;42.628;23.378;2023-12-20T05:22:46;21.10;22.60
82039;DHT22;71610;42.628;23.378;2023-12-20T05:25:12;21.00;23.20
82039;DHT22;71610;42.628;23.378;2023-12-20T05:27:38;21.00;23.60
82039;DHT22;71610;42.628;23.378;2023-12-20T05:30:04;21.00;24.20
82039;DHT22;71610;42.628;23.378;2023-12-20T05:32:30;21.00;24.60
82039;DHT22;71610;42.628;23.378;2023-12-20T05:34:56;21.00;24.80
82039;DHT22;71610;42.628;23.378;2023-12-20T05:37:22;21.10;25.00
82039;DHT22;71610;42.628;23.378;2023-12-20T05:39:48;21.10;25.20
82039;DHT22;71610;42.628;23.378;2023-12-20T05:42:13;21.10;26.40
82039;DHT22;71610;42.628;23.378;2023-12-20T05:44:39;21.10;28.10
82039;DHT22;71610;42.628;23.378;2023-12-20T05:47:06;21.20;29.20
82039;DHT22;71610;42.628;23.378;2023-12-20T05:49:31;21.20;29.50
82039;DHT22;71610;42.628;23.378;2023-12-20T05:51:57;21.20;29.20
82039;DHT22;71610;42.628;23.378;2023-12-20T05:54:23;21.20;29.80
82039;DHT22;71610;42.628;23.378;2023-12-20T05:56:48;21.20;28.70
82039;DHT22;71610;42.628;23.378;2023-12-20T05:59:14;21.20;28.70
82039;DHT22;71610;42.628;23.378;2023-12-20T06:01:40;21.20;28.60
82039;DHT22;71610;42.628;23.378;2023-12-20T06:04:06;21.30;28.70
82039;DHT22;71610;42.628;23.378;2023-12-20T06:06:31;21.30;28.50
82039;DHT22;71610;42.628;23.378;2023-12-20T06:08:57;21.30;28.40
82039;DHT22;71610;42.628;23.378;2023-12-20T06:11:23;21.30;28.60
82039;DHT22;71610;42.628;23.378;2023-12-20T06:13:49;21.30;28.60
82039;DHT22;71610;42.628;23.378;2023-12-20T06:16:18;21.30;28.70
82039;DHT22;71610;42.628;23.378;2023-12-20T06:18:44;21.30;28.70
82039;DHT22;71610;42.628;23.378;2023-12-20T06:21:09;21.40;28.90
82039;DHT22;71610;42.628;23.378;2023-12-20T06:23:38;21.40;29.00
82039;DHT22;71610;42.628;23.378;2023-12-20T06:26:04;21.40;29.00
82039;DHT22;71610;42.628;23.378;2023-12-20T06:28:30;21.40;29.00
82039;DHT22;71610;42.628;23.378;2023-12-20T06:30:55;21.50;29.40
82039;DHT22;71610;42.628;23.378;2023-12-20T06:33:22;21.40;30.00
82039;DHT22;71610;42.628;23.378;2023-12-20T06:35:49;21.50;31.40
82039;DHT22;71610;42.628;23.378;2023-12-20T06:38:15;21.60;30.40
82039;DHT22;71610;42.628;23.378;2023-12-20T06:40:40;21.60;30.10
82039;DHT22;71610;42.628;23.378;2023-12-20T06:43:06;21.60;30.30
82039;DHT22;71610;42.628;23.378;2023-12-20T06:45:32;21.60;30.40
82039;DHT22;71610;42.628;23.378;2023-12-20T06:47:58;21.60;30.10
82039;DHT22;71610;42.628;23.378;2023-12-20T06:50:24;21.60;30.10
82039;DHT22;71610;42.628;23.378;2023-12-20T06:52:50;21.70;31.00
82039;DHT22;71610;42.628;23.378;2023-12-20T06:55:17;21.70;31.70
82039;DHT22;71610;42.628;23.378;2023-12-20T06:57:43;21.80;32.40
82039;DHT22;71610;42.628;23.378;2023-12-20T07:00:10;21.90;32.80
82039;DHT22;71610;42.628;23.378;2023-12-20T07:02:36;21.90;32.90
82039;DHT22;71610;42.628;23.378;2023-12-20T07:05:02;21.90;32.80
82039;DHT22;71610;42.628;23.378;2023-12-20T07:07:28;22.00;32.90
82039;DHT22;71610;42.628;23.378;2023-12-20T07:09:53;22.00;32.90
82039;DHT22;71610;42.628;23.378;2023-12-20T07:12:19;21.90;32.90
82039;DHT22;71610;42.628;23.378;2023-12-20T07:14:46;22.00;33.00
82039;DHT22;71610;42.628;23.378;2023-12-20T07:17:11;22.00;33.00
82039;DHT22;71610;42.628;23.378;2023-12-20T07:19:39;22.00;33.20
82039;DHT22;71610;42.628;23.378;2023-12-20T07:22:06;22.00;33.30
82039;DHT22;71610;42.628;23.378;2023-12-20T07:24:32;22.00;33.30
82039;DHT22;71610;42.628;23.378;2023-12-20T07:26:59;22.10;33.60
82039;DHT22;71610;42.628;23.378;2023-12-20T07:29:25;22.10;33.60
82039;DHT22;71610;42.628;23.378;2023-12-20T07:31:55;22.10;33.60
82039;DHT22;71610;42.628;23.378;2023-12-20T07:34:21;22.20;33.60
82039;DHT22;71610;42.628;23.378;2023-12-20T07:36:47;22.20;33.50
82039;DHT22;71610;42.628;23.378;2023-12-20T07:39:13;22.20;33.30
82039;DHT22;71610;42.628;23.378;2023-12-20T07:41:39;22.20;33.40
82039;DHT22;71610;42.628;23.378;2023-12-20T07:44:06;22.20;33.70
82039;DHT22;71610;42.628;23.378;2023-12-20T07:46:32;22.20;33.80
82039;DHT22;71610;42.628;23.378;2023-12-20T07:48:58;22.20;33.80
82039;DHT22;71610;42.628;23.378;2023-12-20T07:51:23;22.20;33.90
82039;DHT22;71610;42.628;23.378;2023-12-20T07:54:07;22.20;34.00
82039;DHT22;71610;42.628;23.378;2023-12-20T07:56:33;22.20;34.20
82039;DHT22;71610;42.628;23.378;2023-12-20T07:58:59;22.30;34.40
82039;DHT22;71610;42.628;23.378;2023-12-20T08:01:26;22.20;34.50
82039;DHT22;71610;42.628;23.378;2023-12-20T08:03:52;22.30;34.70
82039;DHT22;71610;42.628;23.378;2023-12-20T08:06:18;22.30;34.90
82039;DHT22;71610;42.628;23.378;2023-12-20T08:08:44;22.30;35.00
82039;DHT22;71610;42.628;23.378;2023-12-20T08:11:10;22.30;35.00
82039;DHT22;71610;42.628;23.378;2023-12-20T08:13:35;22.30;34.90
82039;DHT22;71610;42.628;23.378;2023-12-20T08:16:01;22.30;35.00
82039;DHT22;71610;42.628;23.378;2023-12-20T08:18:28;22.30;35.40
82039;DHT22;71610;42.628;23.378;2023-12-20T08:20:54;22.30;35.80
82039;DHT22;71610;42.628;23.378;2023-12-20T08:23:20;22.30;35.80
82039;DHT22;71610;42.628;23.378;2023-12-20T08:25:46;22.30;35.60
82039;DHT22;71610;42.628;23.378;2023-12-20T08:28:13;22.30;35.30
82039;DHT22;71610;42.628;23.378;2023-12-20T08:30:39;22.30;34.80
82039;DHT22;71610;42.628;23.378;2023-12-20T08:33:06;22.30;34.80
82039;DHT22;71610;42.628;23.378;2023-12-20T08:35:36;22.30;35.00
82039;DHT22;71610;42.628;23.378;2023-12-20T08:38:02;22.20;34.90
82039;DHT22;71610;42.628;23.378;2023-12-20T08:40:29;22.20;34.60
82039;DHT22;71610;42.628;23.378;2023-12-20T08:42:55;22.20;34.50
82039;DHT22;71610;42.628;23.378;2023-12-20T08:45:21;22.20;34.40
82039;DHT22;71610;42.628;23.378;2023-12-20T08:47:46;22.20;34.40
82039;DHT22;71610;42.628;23.378;2023-12-20T08:50:12;22.20;34.20
82039;DHT22;71610;42.628;23.378;2023-12-20T08:52:38;22.20;33.80
82039;DHT22;71610;42.628;23.378;2023-12-20T08:55:04;22.20;33.70
82039;DHT22;71610;42.628;23.378;2023-12-20T08:57:30;22.20;33.70
82039;DHT22;71610;42.628;23.378;2023-12-20T08:59:57;22.20;34.00
82039;DHT22;71610;42.628;23.378;2023-12-20T09:02:23;22.20;34.20
82039;DHT22;71610;42.628;23.378;2023-12-20T09:04:49;22.20;34.20
82039;DHT22;71610;42.628;23.378;2023-12-20T09:07:22;22.20;34.20
82039;DHT22;71610;42.628;23.378;2023-12-20T09:09:48;22.20;34.40
82039;DHT22;71610;42.628;23.378;2023-12-20T09:12:13;22.20;34.40
82039;DHT22;71610;42.628;23.378;2023-12-20T09:14:39;22.20;34.20
82039;DHT22;71610;42.628;23.378;2023-12-20T09:17:05;22.20;34.30
82039;DHT22;71610;42.628;23.378;2023-12-20T09:19:33;22.10;33.90
82039;DHT22;71610;42.628;23.378;2023-12-20T09:21:59;22.10;34.40
82039;DHT22;71610;42.628;23.378;2023-12-20T09:24:25;22.20;35.20
82039;DHT22;71610;42.628;23.378;2023-12-20T09:26:51;22.20;35.70
82039;DHT22;71610;42.628;23.378;2023-12-20T09:29:16;22.20;36.00
82039;DHT22;71610;42.628;23.378;2023-12-20T09:31:44;22.20;36.20
82039;DHT22;71610;42.628;23.378;2023-12-20T09:34:10;22.20;36.80
82039;DHT22;71610;42.628;23.378;2023-12-20T09:36:35;22.20;37.90
82039;DHT22;71610;42.628;23.378;2023-12-20T09:39:02;22.30;38.60
82039;DHT22;71610;42.628;23.378;2023-12-20T09:41:31;22.30;38.80
82039;DHT22;71610;42.628;23.378;2023-12-20T09:43:59;22.30;39.30
82039;DHT22;71610;42.628;23.378;2023-12-20T09:46:29;22.40;39.50
82039;DHT22;71610;42.628;23.378;2023-12-20T09:48:59;22.40;39.70
82039;DHT22;71610;42.628;23.378;2023-12-20T09:51:28;22.40;39.90
82039;DHT22;71610;42.628;23.378;2023-12-20T09:53:54;22.50;40.10
82039;DHT22;71610;42.628;23.378;2023-12-20T09:56:22;22.50;39.80
82039;DHT22;71610;42.628;23.378;2023-12-20T09:58:48;22.50;39.30
82039;DHT22;71610;42.628;23.378;2023-12-20T10:01:15;22.50;38.90
82039;DHT22;71610;42.628;23.378;2023-12-20T10:03:41;22.50;38.70
82039;DHT22;71610;42.628;23.378;2023-12-20T10:06:07;22.50;38.50
82039;DHT22;71610;42.628;23.378;2023-12-20T10:08:34;22.60;38.50
82039;DHT22;71610;42.628;23.378;2023-12-20T10:11:00;22.50;38.30
82039;DHT22;71610;42.628;23.378;2023-12-20T10:13:28;22.60;38.20
82039;DHT22;71610;42.628;23.378;2023-12-20T10:15:55;22.50;38.00
82039;DHT22;71610;42.628;23.378;2023-12-20T10:18:21;22.60;39.10
82039;DHT22;71610;42.628;23.378;2023-12-20T10:20:47;22.50;37.80
82039;DHT22;71610;42.628;23.378;2023-12-20T10:23:15;22.50;37.70
82039;DHT22;71610;42.628;23.378;2023-12-20T10:25:41;22.50;37.70
82039;DHT22;71610;42.628;23.378;2023-12-20T10:28:16;22.50;37.60
82039;DHT22;71610;42.628;23.378;2023-12-20T10:30:48;22.50;37.50
82039;DHT22;71610;42.628;23.378;2023-12-20T10:33:26;22.50;37.40
82039;DHT22;71610;42.628;23.378;2023-12-20T10:35:53;22.50;37.30
82039;DHT22;71610;42.628;23.378;2023-12-20T10:38:19;22.40;37.30
82039;DHT22;71610;42.628;23.378;2023-12-20T10:40:46;22.50;38.20
82039;DHT22;71610;42.628;23.378;2023-12-20T10:43:12;22.50;39.80
82039;DHT22;71610;42.628;23.378;2023-12-20T10:45:38;22.40;40.30
82039;DHT22;71610;42.628;23.378;2023-12-20T10:48:05;22.40;40.30
82039;DHT22;71610;42.628;23.378;2023-12-20T10:50:31;22.40;40.00
82039;DHT22;71610;42.628;23.378;2023-12-20T10:52:58;22.40;39.40
82039;DHT22;71610;42.628;23.378;2023-12-20T10:55:24;22.40;38.70
82039;DHT22;71610;42.628;23.378;2023-12-20T10:57:56;22.30;38.10
82039;DHT22;71610;42.628;23.378;2023-12-20T11:00:23;22.30;37.80
82039;DHT22;71610;42.628;23.378;2023-12-20T11:02:49;22.30;37.10
82039;DHT22;71610;42.628;23.378;2023-12-20T11:08:09;22.30;36.80
82039;DHT22;71610;42.628;23.378;2023-12-20T11:10:58;22.30;37.00
82039;DHT22;71610;42.628;23.378;2023-12-20T11:13:44;22.30;37.00
82039;DHT22;71610;42.628;23.378;2023-12-20T11:16:10;22.30;37.10
82039;DHT22;71610;42.628;23.378;2023-12-20T11:18:36;22.20;37.00
82039;DHT22;71610;42.628;23.378;2023-12-20T11:21:04;22.20;37.00
82039;DHT22;71610;42.628;23.378;2023-12-20T11:23:30;22.20;37.00
82039;DHT22;71610;42.628;23.378;2023-12-20T11:25:58;22.20;37.10
82039;DHT22;71610;42.628;23.378;2023-12-20T11:28:25;22.20;37.00
82039;DHT22;71610;42.628;23.378;2023-12-20T11:30:52;22.20;37.00
82039;DHT22;71610;42.628;23.378;2023-12-20T11:33:26;22.20;37.00
82039;DHT22;71610;42.628;23.378;2023-12-20T11:35:59;22.20;37.00
82039;DHT22;71610;42.628;23.378;2023-12-20T11:38:25;22.20;37.10
82039;DHT22;71610;42.628;23.378;2023-12-20T11:40:51;22.20;37.20
82039;DHT22;71610;42.628;23.378;2023-12-20T11:43:32;22.20;37.10
82039;DHT22;71610;42.628;23.378;2023-12-20T11:46:04;22.20;37.20
82039;DHT22;71610;42.628;23.378;2023-12-20T11:48:31;22.20;37.20
82039;DHT22;71610;42.628;23.378;2023-12-20T11:50:58;22.20;37.20
82039;DHT22;71610;42.628;23.378;2023-12-20T11:53:23;22.20;37.20
82039;DHT22;71610;42.628;23.378;2023-12-20T11:55:49;22.20;37.20
82039;DHT22;71610;42.628;23.378;2023-12-20T11:58:16;22.20;37.30
82039;DHT22;71610;42.628;23.378;2023-12-20T12:00:42;22.20;37.20
82039;DHT22;71610;42.628;23.378;2023-12-20T12:03:09;22.30;37.30
82039;DHT22;71610;42.628;23.378;2023-12-20T12:05:35;22.20;37.20
82039;DHT22;71610;42.628;23.378;2023-12-20T12:08:02;22.20;37.20
82039;DHT22;71610;42.628;23.378;2023-12-20T12:10:29;22.20;37.20
82039;DHT22;71610;42.628;23.378;2023-12-20T12:12:55;22.20;37.20
82039;DHT22;71610;42.628;23.378;2023-12-20T12:15:21;22.30;37.30
82039;DHT22;71610;42.628;23.378;2023-12-20T12:17:57;22.20;37.20
82039;DHT22;71610;42.628;23.378;2023-12-20T12:20:23;22.30;37.30
82039;DHT22;71610;42.628;23.378;2023-12-20T12:25:25;22.30;37.30
82039;DHT22;71610;42.628;23.378;2023-12-20T12:27:51;22.20;37.30
82039;DHT22;71610;42.628;23.378;2023-12-20T12:30:17;22.30;37.30
82039;DHT22;71610;42.628;23.378;2023-12-20T12:32:47;22.20;37.30
82039;DHT22;71610;42.628;23.378;2023-12-20T12:35:14;22.30;37.30
82039;DHT22;71610;42.628;23.378;2023-12-20T12:37:40;22.30;37.40
82039;DHT22;71610;42.628;23.378;2023-12-20T12:40:14;22.30;37.40
82039;DHT22;71610;42.628;23.378;2023-12-20T12:42:41;22.30;37.50
82039;DHT22;71610;42.628;23.378;2023-12-20T12:45:07;22.30;37.50
82039;DHT22;71610;42.628;23.378;2023-12-20T12:47:34;22.30;37.50
82039;DHT22;71610;42.628;23.378;2023-12-20T12:50:00;22.30;37.50
82039;DHT22;71610;42.628;23.378;2023-12-20T12:52:26;22.30;37.70
82039;DHT22;71610;42.628;23.378;2023-12-20T12:54:52;22.30;38.00
82039;DHT22;71610;42.628;23.378;2023-12-20T12:57:18;22.30;38.20
82039;DHT22;71610;42.628;23.378;2023-12-20T12:59:45;22.30;38.20
82039;DHT22;71610;42.628;23.378;2023-12-20T13:02:14;22.30;38.30
82039;DHT22;71610;42.628;23.378;2023-12-20T13:04:40;22.30;38.30
82039;DHT22;71610;42.628;23.378;2023-12-20T13:07:07;22.30;38.40
82039;DHT22;71610;42.628;23.378;2023-12-20T13:09:33;22.30;39.50
82039;DHT22;71610;42.628;23.378;2023-12-20T13:11:59;22.30;38.50
82039;DHT22;71610;42.628;23.378;2023-12-20T13:14:25;22.30;38.60
82039;DHT22;71610;42.628;23.378;2023-12-20T13:16:51;22.30;38.60
82039;DHT22;71610;42.628;23.378;2023-12-20T13:19:16;22.30;38.70
82039;DHT22;71610;42.628;23.378;2023-12-20T13:21:42;22.30;38.70
82039;DHT22;71610;42.628;23.378;2023-12-20T13:24:08;22.30;39.00
82039;DHT22;71610;42.628;23.378;2023-12-20T13:26:33;22.30;39.00
82039;DHT22;71610;42.628;23.378;2023-12-20T13:28:59;22.30;38.90
82039;DHT22;71610;42.628;23.378;2023-12-20T13:31:25;22.30;38.90
82039;DHT22;71610;42.628;23.378;2023-12-20T13:33:51;22.30;39.40
82039;DHT22;71610;42.628;23.378;2023-12-20T13:36:18;22.30;39.80
82039;DHT22;71610;42.628;23.378;2023-12-20T13:38:44;22.40;40.20
82039;DHT22;71610;42.628;23.378;2023-12-20T13:41:10;22.40;40.30
82039;DHT22;71610;42.628;23.378;2023-12-20T13:43:35;22.40;40.40
82039;DHT22;71610;42.628;23.378;2023-12-20T13:46:01;22.50;40.60
82039;DHT22;71610;42.628;23.378;2023-12-20T13:48:27;22.50;40.70
82039;DHT22;71610;42.628;23.378;2023-12-20T13:50:53;22.50;40.70
82039;DHT22;71610;42.628;23.378;2023-12-20T13:53:20;22.50;40.70
82039;DHT22;71610;42.628;23.378;2023-12-20T13:55:46;22.60;40.80
82039;DHT22;71610;42.628;23.378;2023-12-20T13:58:12;22.60;40.80
82039;DHT22;71610;42.628;23.378;2023-12-20T14:00:38;22.60;40.90
82039;DHT22;71610;42.628;23.378;2023-12-20T14:03:04;22.70;41.10
82039;DHT22;71610;42.628;23.378;2023-12-20T14:05:30;22.70;41.10
82039;DHT22;71610;42.628;23.378;2023-12-20T14:07:56;22.70;41.10
82039;DHT22;71610;42.628;23.378;2023-12-20T14:10:26;22.70;41.30
82039;DHT22;71610;42.628;23.378;2023-12-20T14:12:53;22.70;41.20
82039;DHT22;71610;42.628;23.378;2023-12-20T14:15:19;22.70;41.20
82039;DHT22;71610;42.628;23.378;2023-12-20T14:17:44;22.70;41.10
82039;DHT22;71610;42.628;23.378;2023-12-20T14:20:11;22.70;41.10
82039;DHT22;71610;42.628;23.378;2023-12-20T14:22:39;22.70;40.80
82039;DHT22;71610;42.628;23.378;2023-12-20T14:25:11;22.70;40.70
82039;DHT22;71610;42.628;23.378;2023-12-20T14:27:38;22.70;41.60
82039;DHT22;71610;42.628;23.378;2023-12-20T14:30:04;22.70;40.60
82039;DHT22;71610;42.628;23.378;2023-12-20T14:32:48;22.70;40.70
82039;DHT22;71610;42.628;23.378;2023-12-20T14:35:14;22.70;40.70
82039;DHT22;71610;42.628;23.378;2023-12-20T14:37:40;22.70;40.70
82039;DHT22;71610;42.628;23.378;2023-12-20T14:40:08;22.70;40.80
82039;DHT22;71610;42.628;23.378;2023-12-20T14:42:44;22.70;40.80
82039;DHT22;71610;42.628;23.378;2023-12-20T14:45:10;22.70;40.80
82039;DHT22;71610;42.628;23.378;2023-12-20T14:47:36;22.70;40.80
82039;DHT22;71610;42.628;23.378;2023-12-20T14:50:06;22.70;40.80
82039;DHT22;71610;42.628;23.378;2023-12-20T14:52:32;22.70;40.80
82039;DHT22;71610;42.628;23.378;2023-12-20T14:55:00;22.70;41.40
82039;DHT22;71610;42.628;23.378;2023-12-20T14:57:26;22.70;42.10
82039;DHT22;71610;42.628;23.378;2023-12-20T14:59:52;22.70;42.40
82039;DHT22;71610;42.628;23.378;2023-12-20T15:02:18;22.70;42.20
82039;DHT22;71610;42.628;23.378;2023-12-20T15:04:44;22.70;42.10
82039;DHT22;71610;42.628;23.378;2023-12-20T15:07:10;22.70;42.10
82039;DHT22;71610;42.628;23.378;2023-12-20T15:09:35;22.70;41.90
82039;DHT22;71610;42.628;23.378;2023-12-20T15:12:01;22.70;42.10
82039;DHT22;71610;42.628;23.378;2023-12-20T15:14:27;22.70;42.20
82039;DHT22;71610;42.628;23.378;2023-12-20T15:16:54;22.70;42.20